• Join FlightAware (Why Join?)
  • Login
  • US Flag 
04:47AM EDT


 

Airport Tracker/Info


-or-


 

Live Flight TrackerFlight Track Log ✈ EJA831 ✈ 04-May-2013 ✈ KGCK - KSDL

Flight Track Log - Related Links

Times and Time Zones

All times are in EDT time to prevent confusion due to time zone crossing. See the EJA831 flight status page for this flight to view local times or setup timezone preferences in your user account.

Time Position Orientation Groundspeed Altitude Reporting Facility
EDT Latitude Longitude Course Direction KTS MPH feet Rate Location/Type
01:08PM 37.9258 -100.8047 254° West 281 323 5,000  Level Kansas City Center
01:09PM 37.8903 -100.8969 244° Southwest 269 310 5,100 660 Climbing Kansas City Center
01:10PM 37.8628 -100.9786 247° West 267 307 6,400 2,700 Climbing Kansas City Center
01:12PM 37.9085 -100.7421 216° Southwest  Level FlightAware Approximate
01:12PM 37.8303 -101.0792 248° West 273 314 10,700  Level Kansas City Center
01:13PM 37.8713 -100.8317 252° West  Level FlightAware Approximate
01:13PM 37.7992 -101.1711 247° West 288 331 13,300  Level Kansas City Center
01:14PM 37.7656 -101.2733 247° West 311 358 15,800 2,280 Climbing Kansas City Center
01:16PM 37.6897 -101.5022 247° West 344 396 20,300 2,160 Climbing Albuquerque Center
01:17PM 37.6453 -101.6322 247° West 361 415 22,500 1,920 Climbing Albuquerque Center
01:18PM 37.6075 -101.7444 247° West 364 419 24,300 1,680 Climbing Kansas City Center
01:19PM 37.5622 -101.8769 247° West 367 422 26,000 780 Climbing Albuquerque Center
01:20PM 37.5225 -101.9978 248° West 386 444 26,000  Level Albuquerque Center
01:21PM 37.4719 -102.1447 247° West 407 468 26,000  Level Albuquerque Center
01:22PM 37.4283 -102.2683 246° West 405 466 26,000  Level Albuquerque Center
01:23PM 37.3800 -102.4106 247° West 407 468 26,000  Level Albuquerque Center
01:24PM 37.3372 -102.5350 247° West 406 467 26,000  Level Albuquerque Center
01:25PM 37.2853 -102.6806 246° West 407 468 26,000  Level Albuquerque Center
01:26PM 37.2422 -102.8058 247° West 407 468 26,000  Level Albuquerque Center
01:27PM 37.1989 -102.9303 246° West 407 468 26,000  Level Albuquerque Center
01:28PM 37.1472 -103.0756 246° West 407 468 26,000  Level Albuquerque Center
01:29PM 37.1036 -103.1983 246° West 404 465 26,000  Level Albuquerque Center
01:30PM 37.0528 -103.3419 246° West 402 463 26,000  Level Albuquerque Center
01:31PM 37.0086 -103.4653 246° West 403 464 26,000  Level Albuquerque Center
01:32PM 36.9569 -103.6083 246° West 402 463 26,000  Level Albuquerque Center
01:33PM 36.9131 -103.7297 246° West 400 460 26,000  Level Albuquerque Center
01:34PM 36.8689 -103.8514 246° West 400 460 26,000  Level Albuquerque Center
01:35PM 36.8175 -103.9908 245° Southwest 397 457 26,000  Level Albuquerque Center
01:36PM 36.7733 -104.1114 245° Southwest 396 456 26,000  Level Albuquerque Center
01:37PM 36.7219 -104.2522 246° West 397 457 26,000  Level Albuquerque Center
01:38PM 36.6769 -104.3722 245° Southwest 399 459 26,000  Level Albuquerque Center
01:39PM 36.6314 -104.4975 246° West 398 458 26,000  Level Albuquerque Center
01:40PM 36.5842 -104.6219 245° Southwest 397 457 26,000  Level Albuquerque Center
01:41PM 36.5297 -104.7669 245° Southwest 396 456 26,000  Level Albuquerque Center
01:42PM 36.4861 -104.8953 247° West 398 458 26,000  Level Albuquerque Center
01:43PM 36.4544 -105.0283 254° West 399 459 26,000  Level Albuquerque Center
01:44PM 36.4231 -105.1606 254° West 398 458 26,000  Level Albuquerque Center
01:46PM 36.3906 -105.2950 253° West 402 463 26,000  Level Albuquerque Center
01:47PM 36.3594 -105.4261 254° West 397 457 26,000  Level Albuquerque Center
01:48PM 36.3286 -105.5539 253° West 392 451 26,000  Level Albuquerque Center
01:49PM 36.2978 -105.6811 253° West 388 447 26,000  Level Albuquerque Center
01:50PM 36.2667 -105.8103 253° West 391 450 26,000  Level Albuquerque Center
01:51PM 36.2292 -105.9658 253° West 393 452 26,000  Level Albuquerque Center
01:52PM 36.1981 -106.0947 253° West 392 451 26,000  Level Albuquerque Center
01:53PM 36.1672 -106.2228 253° West 391 450 26,000  Level Albuquerque Center
01:54PM 36.1350 -106.3500 253° West 390 449 26,000  Level Albuquerque Center
01:55PM 36.1036 -106.4778 253° West 389 448 26,000  Level Albuquerque Center
01:56PM 36.0711 -106.6036 252° West 387 445 26,000  Level Albuquerque Center
01:57PM 36.0353 -106.7575 254° West 389 448 26,000  Level Albuquerque Center
01:58PM 36.0061 -106.8856 254° West 388 447 26,000  Level Albuquerque Center
01:59PM 35.9783 -107.0122 255° West 386 444 26,000  Level Albuquerque Center
02:00PM 35.9492 -107.1400 254° West 387 445 26,000  Level Albuquerque Center
02:01PM 35.9197 -107.2708 255° West 387 445 26,000  Level Albuquerque Center
02:02PM 35.8875 -107.4131 254° West 385 443 26,000  Level Albuquerque Center
02:03PM 35.8592 -107.5347 254° West 386 444 26,000  Level Albuquerque Center
02:04PM 35.8264 -107.6772 254° West 385 443 26,000  Level Albuquerque Center
02:05PM 35.7983 -107.7978 254° West 384 442 26,000  Level Albuquerque Center
02:06PM 35.7711 -107.9186 255° West 382 440 26,000  Level Albuquerque Center
02:07PM 35.7375 -108.0597 254° West 383 441 26,000  Level Albuquerque Center
02:08PM 35.7103 -108.1806 255° West 382 440 26,000  Level Albuquerque Center
02:09PM 35.6775 -108.3211 254° West 382 440 26,000  Level Albuquerque Center
02:10PM 35.6489 -108.4414 254° West 382 440 26,000  Level Albuquerque Center
02:11PM 35.6150 -108.5825 254° West 383 441 26,000  Level Albuquerque Center
02:12PM 35.5858 -108.7033 254° West 383 441 26,000  Level Albuquerque Center
02:13PM 35.5575 -108.8233 254° West 382 440 26,000  Level Albuquerque Center
02:14PM 35.5231 -108.9639 253° West 382 440 26,000  Level Albuquerque Center
02:15PM 35.4944 -109.0853 254° West 384 442 26,000  Level Albuquerque Center
02:16PM 35.4597 -109.2258 253° West 384 442 26,000  Level Albuquerque Center
02:17PM 35.4300 -109.3464 253° West 385 443 26,000  Level Albuquerque Center
02:18PM 35.4008 -109.4669 254° West 384 442 26,000  Level Albuquerque Center
02:19PM 35.3661 -109.6083 253° West 386 444 26,000  Level Albuquerque Center
02:21PM 35.3350 -109.7250 252° West 380 437 26,000  Level Albuquerque Center
02:22PM 35.3003 -109.8686 254° West 389 448 26,000  Level Albuquerque Center
02:23PM 35.2708 -109.9886 253° West 386 444 26,000  Level Albuquerque Center
02:24PM 35.2392 -110.1075 252° West 384 442 26,000  Level Albuquerque Center
02:25PM 35.2019 -110.2464 252° West 385 443 26,000  Level Albuquerque Center
02:26PM 35.1722 -110.3656 253° West 382 440 26,000  Level Albuquerque Center
02:27PM 35.1347 -110.5050 252° West 386 444 26,000  Level Albuquerque Center
02:28PM 35.1031 -110.6247 252° West 386 444 26,000  Level Albuquerque Center
02:29PM 35.0664 -110.7633 252° West 386 444 26,000  Level Albuquerque Center
02:30PM 35.0211 -110.8792 245° Southwest 395 455 26,000  Level Albuquerque Center
02:31PM 34.9694 -110.9931 241° Southwest 387 445 26,000 -540 Level Albuquerque Center
02:32PM 34.9219 -111.1097 244° Southwest 385 443 24,900 -1,020 Descending Albuquerque Center
02:33PM 34.8739 -111.2206 242° Southwest 378 435 24,000 -1,080 Descending Albuquerque Center
02:34PM 34.8042 -111.3122 227° Southwest 383 441 22,800 -1,320 Descending Albuquerque Center
02:35PM 34.7281 -111.3889 220° Southwest 360 414 21,300 -1,500 Descending Albuquerque Center
02:36PM 34.6517 -111.4667 220° Southwest 358 412 19,800 -1,620 Descending Albuquerque Center
02:37PM 34.5611 -111.5575 220° Southwest 354 407 18,100 -1,620 Descending Albuquerque Center
02:38PM 34.4869 -111.6331 220° Southwest 352 405 16,500 -1,500 Descending Albuquerque Center
02:39PM 34.4139 -111.7072 220° Southwest 346 398 15,100 -1,380 Descending Albuquerque Center
02:40PM 34.3406 -111.7806 220° Southwest 344 396 13,700 -1,380 Descending Albuquerque Center
02:41PM 34.2692 -111.8511 219° Southwest 338 389 12,300 -1,320 Descending Albuquerque Center
02:42PM 34.2089 -111.9111 219° Southwest 293 337 11,100 -780 Descending Albuquerque Center
02:43PM 34.1150 -111.9269 188° South 287 330 10,800 -840 Descending Albuquerque Center
02:44PM 34.0361 -111.9306 182° South 287 330 9,400 -1,380 Descending Albuquerque Center
02:45PM 33.9631 -111.9367 184° South 270 311 8,000 -1,260 Descending Albuquerque Center
02:46PM 33.8922 -111.9411 183° South 260 299 6,900 -660 Descending Albuquerque Center
02:47PM 33.8325 -111.9447 183° South 217 250 6,700 -660 Descending Albuquerque Center
02:48PM 33.7833 -111.9331 169° South 195 224 5,600 -840 Descending Albuquerque Center
02:49PM 33.7328 -111.8892 144° Southeast 183 211 5,100 -840 Descending Albuquerque Center
02:50PM 33.6983 -111.8650 150° Southeast 160 184 3,900 -1,140 Descending Albuquerque Center
02:51PM 33.6625 -111.8644 179° South 140 161 2,800 -1,080 Descending Albuquerque Center
02:52PM 33.6361 -111.8956 224° Southwest 135 155 1,800 -660 Descending Albuquerque Center
02:53PM 33.6100 -111.9253 223° Southwest 134 154 1,500 -300 Descending Albuquerque Center
02:55PM 33.6229 -111.9105 189° South  Level Estimated